createdAt,value
2023-06-21T00:00:30.575Z,56.70
2023-06-21T00:01:30.582Z,54.70
2023-06-21T00:02:30.599Z,63.10
2023-06-21T00:03:30.526Z,50.00
2023-06-21T00:04:30.523Z,49.20
2023-06-21T00:05:30.514Z,51.10
2023-06-21T00:06:30.512Z,52.20
2023-06-21T00:07:30.512Z,53.30
2023-06-21T00:08:30.518Z,51.40
2023-06-21T00:09:30.507Z,49.40
2023-06-21T00:10:30.727Z,50.60
2023-06-21T00:11:30.517Z,53.80
2023-06-21T00:12:30.502Z,56.70
2023-06-21T00:13:30.500Z,58.70
2023-06-21T00:14:30.501Z,57.60
2023-06-21T00:15:30.503Z,53.30
2023-06-21T00:16:30.495Z,52.30
2023-06-21T00:17:30.512Z,52.40
2023-06-21T00:18:30.494Z,56.20
2023-06-21T00:19:30.494Z,54.40
2023-06-21T00:20:30.574Z,56.20
2023-06-21T00:21:30.497Z,52.80
2023-06-21T00:22:30.486Z,54.60
2023-06-21T00:23:30.483Z,55.40
2023-06-21T00:24:30.577Z,69.00
2023-06-21T00:25:30.484Z,59.50
2023-06-21T00:26:30.483Z,60.40
2023-06-21T00:27:30.481Z,55.30
2023-06-21T00:28:30.478Z,58.70
2023-06-21T00:29:30.484Z,55.80
2023-06-21T00:30:30.488Z,54.10
2023-06-21T00:31:30.497Z,53.40
2023-06-21T00:32:30.508Z,54.90
2023-06-21T00:33:30.480Z,58.00
2023-06-21T00:34:30.464Z,62.50
2023-06-21T00:35:30.474Z,61.60
2023-06-21T00:36:30.460Z,71.50
2023-06-21T00:37:30.468Z,67.00
2023-06-21T00:38:30.459Z,65.50
2023-06-21T00:39:30.454Z,71.20
2023-06-21T00:40:35.530Z,90.50
2023-06-21T00:41:30.464Z,94.70
2023-06-21T00:42:30.457Z,87.40
2023-06-21T00:43:30.459Z,85.90
2023-06-21T00:44:30.446Z,79.40
2023-06-21T00:45:30.449Z,76.40
2023-06-21T00:46:30.464Z,73.00
2023-06-21T00:47:30.500Z,88.50
2023-06-21T00:48:30.568Z,90.40
2023-06-21T00:49:30.434Z,93.30
2023-06-21T00:50:30.437Z,96.70
2023-06-21T00:51:30.429Z,90.00
2023-06-21T00:52:30.430Z,97.40
2023-06-21T00:53:30.437Z,91.20
2023-06-21T00:54:30.428Z,78.70
2023-06-21T00:55:30.424Z,78.10
2023-06-21T00:56:30.426Z,78.40
2023-06-21T00:57:30.423Z,83.50
2023-06-21T00:58:30.420Z,87.00
2023-06-21T00:59:30.415Z,59.10
2023-06-21T01:00:30.531Z,62.90
2023-06-21T01:01:30.432Z,60.50
2023-06-21T01:02:30.486Z,55.60
2023-06-21T01:03:30.409Z,52.60
2023-06-21T01:04:30.410Z,52.30
2023-06-21T01:05:30.486Z,55.80
2023-06-21T01:06:30.407Z,56.00
2023-06-21T01:07:30.418Z,58.80
2023-06-21T01:08:30.400Z,56.50
2023-06-21T01:09:30.400Z,58.30
2023-06-21T01:10:30.399Z,58.30
2023-06-21T01:11:30.393Z,62.80
2023-06-21T01:12:30.485Z,63.90
2023-06-21T01:13:30.563Z,62.60
2023-06-21T01:14:30.388Z,69.60
2023-06-21T01:15:30.388Z,59.40
2023-06-21T01:16:30.385Z,57.80
2023-06-21T01:17:30.401Z,59.60
2023-06-21T01:18:30.389Z,54.50
2023-06-21T01:19:30.381Z,56.90
2023-06-21T01:20:30.756Z,56.40
2023-06-21T01:21:30.378Z,53.70
2023-06-21T01:22:30.397Z,55.30
2023-06-21T01:23:30.371Z,53.20
2023-06-21T01:24:30.432Z,53.60
2023-06-21T01:25:30.389Z,51.40
2023-06-21T01:26:30.368Z,50.40
2023-06-21T01:27:30.371Z,50.60
2023-06-21T01:28:30.378Z,49.50
2023-06-21T01:29:30.375Z,52.30
2023-06-21T01:30:30.448Z,60.00
2023-06-21T01:31:30.400Z,65.40
2023-06-21T01:32:30.396Z,71.90
2023-06-21T01:33:30.359Z,79.00
2023-06-21T01:34:30.358Z,76.00
2023-06-21T01:35:30.356Z,73.50
2023-06-21T01:36:30.351Z,54.80
2023-06-21T01:37:30.352Z,52.70
2023-06-21T01:38:30.366Z,51.10
2023-06-21T01:39:30.411Z,51.30
2023-06-21T01:40:30.479Z,50.50
2023-06-21T01:41:30.814Z,51.00
2023-06-21T01:42:30.341Z,51.70
2023-06-21T01:43:30.347Z,52.80
2023-06-21T01:44:30.335Z,51.30
2023-06-21T01:45:30.338Z,49.10
2023-06-21T01:46:30.372Z,48.90
2023-06-21T01:47:30.348Z,47.80
2023-06-21T01:48:30.330Z,46.60
2023-06-21T01:49:30.326Z,46.60
2023-06-21T01:50:30.367Z,47.50
2023-06-21T01:51:30.324Z,49.10
2023-06-21T01:52:30.325Z,50.00
2023-06-21T01:53:30.320Z,48.10
2023-06-21T01:54:30.324Z,50.00
2023-06-21T01:55:30.317Z,49.10
2023-06-21T01:56:30.316Z,50.50
2023-06-21T01:57:30.316Z,47.60
2023-06-21T01:58:30.310Z,47.40
2023-06-21T01:59:30.308Z,46.60
2023-06-21T02:00:30.342Z,49.00
2023-06-21T02:01:30.312Z,47.50
2023-06-21T02:02:30.318Z,48.00
2023-06-21T02:03:30.304Z,52.60
2023-06-21T02:04:30.300Z,58.00
2023-06-21T02:05:30.457Z,62.00
2023-06-21T02:06:30.298Z,67.20
2023-06-21T02:07:30.291Z,65.00
2023-06-21T02:08:30.297Z,66.80
2023-06-21T02:09:30.291Z,68.90
2023-06-21T02:10:30.480Z,67.70
2023-06-21T02:11:30.294Z,66.40
2023-06-21T02:12:30.288Z,67.20
2023-06-21T02:13:30.287Z,64.60
2023-06-21T02:14:30.286Z,62.50
2023-06-21T02:15:30.289Z,60.50
2023-06-21T02:16:30.305Z,57.00
2023-06-21T02:17:30.293Z,63.40
2023-06-21T02:18:30.300Z,62.10
2023-06-21T02:19:30.274Z,61.60
2023-06-21T02:20:30.538Z,59.60
2023-06-21T02:21:30.282Z,55.30
2023-06-21T02:22:30.273Z,55.20
2023-06-21T02:23:30.269Z,50.20
2023-06-21T02:24:30.331Z,50.40
2023-06-21T02:25:30.266Z,51.10
2023-06-21T02:26:30.264Z,51.60
2023-06-21T02:27:30.261Z,50.10
2023-06-21T02:28:30.262Z,51.50
2023-06-21T02:29:30.263Z,51.30
2023-06-21T02:30:30.549Z,57.20
2023-06-21T02:31:30.258Z,64.30
2023-06-21T02:32:30.303Z,62.90
2023-06-21T02:33:30.297Z,57.30
2023-06-21T02:34:30.251Z,54.10
2023-06-21T02:35:30.253Z,53.20
2023-06-21T02:36:30.253Z,53.20
2023-06-21T02:37:30.264Z,52.50
2023-06-21T02:38:30.248Z,51.70
2023-06-21T02:39:30.244Z,48.50
2023-06-21T02:40:30.436Z,47.00
2023-06-21T02:41:30.247Z,46.10
2023-06-21T02:42:30.263Z,47.30
2023-06-21T02:43:30.235Z,52.50
2023-06-21T02:44:30.233Z,56.70
2023-06-21T02:45:30.251Z,61.40
2023-06-21T02:46:30.255Z,56.40
2023-06-21T02:47:30.259Z,56.10
2023-06-21T02:48:30.232Z,55.10
2023-06-21T02:49:30.225Z,59.80
2023-06-21T02:50:30.402Z,55.40
2023-06-21T02:51:30.220Z,64.90
2023-06-21T02:52:30.230Z,67.30
2023-06-21T02:53:30.219Z,66.20
2023-06-21T02:54:30.220Z,63.70
2023-06-21T02:55:30.217Z,67.90
2023-06-21T02:56:30.217Z,72.70
2023-06-21T02:57:30.214Z,86.10
2023-06-21T02:58:30.216Z,83.10
2023-06-21T02:59:30.206Z,92.50
2023-06-21T03:00:30.572Z,86.30
2023-06-21T03:01:30.242Z,93.30
2023-06-21T03:02:30.259Z,91.70
2023-06-21T03:03:30.438Z,99.30
2023-06-21T03:04:30.198Z,100.20
2023-06-21T03:05:30.215Z,101.00
2023-06-21T03:06:30.197Z,114.20
2023-06-21T03:07:30.194Z,107.40
2023-06-21T03:08:30.197Z,98.30
2023-06-21T03:09:30.189Z,81.20
2023-06-21T03:10:30.357Z,80.30
2023-06-21T03:11:30.189Z,74.80
2023-06-21T03:12:30.188Z,73.20
2023-06-21T03:13:30.190Z,76.30
2023-06-21T03:14:30.186Z,82.30
2023-06-21T03:15:30.187Z,105.70
2023-06-21T03:16:30.180Z,121.20
2023-06-21T03:17:30.196Z,129.10
2023-06-21T03:18:30.178Z,150.20
2023-06-21T03:19:30.179Z,172.00
2023-06-21T03:20:30.364Z,188.00
2023-06-21T03:21:30.177Z,192.40
2023-06-21T03:22:30.171Z,177.00
2023-06-21T03:23:30.166Z,140.30
2023-06-21T03:24:30.196Z,106.30
2023-06-21T03:25:30.182Z,107.40
2023-06-21T03:26:30.163Z,104.20
2023-06-21T03:27:30.159Z,110.80
2023-06-21T03:28:30.156Z,104.20
2023-06-21T03:29:30.158Z,96.80
2023-06-21T03:30:30.410Z,89.50
2023-06-21T03:31:30.274Z,93.30
2023-06-21T03:32:30.232Z,92.10
2023-06-21T03:33:30.148Z,90.90
2023-06-21T03:34:30.170Z,95.10
2023-06-21T03:35:30.154Z,104.60
2023-06-21T03:36:30.141Z,114.30
2023-06-21T03:37:30.145Z,114.40
2023-06-21T03:38:30.197Z,100.80
2023-06-21T03:39:30.136Z,93.20
2023-06-21T03:40:30.462Z,101.80
2023-06-21T03:41:30.154Z,118.70
2023-06-21T03:42:30.130Z,114.50
2023-06-21T03:43:30.126Z,98.70
2023-06-21T03:44:30.129Z,106.20
2023-06-21T03:45:30.126Z,100.50
2023-06-21T03:46:30.151Z,81.30
2023-06-21T03:47:30.159Z,76.70
2023-06-21T03:48:30.119Z,72.10
2023-06-21T03:49:30.121Z,69.60
2023-06-21T03:50:30.259Z,67.90
2023-06-21T03:51:30.113Z,71.10
2023-06-21T03:52:30.117Z,69.30
2023-06-21T03:53:30.112Z,73.20
2023-06-21T03:54:30.113Z,89.10
2023-06-21T03:55:30.117Z,98.90
2023-06-21T03:56:30.113Z,104.40
2023-06-21T03:57:30.107Z,108.20
2023-06-21T03:58:30.123Z,106.90
2023-06-21T03:59:30.103Z,96.90
2023-06-21T04:00:30.230Z,94.50
2023-06-21T04:01:30.137Z,98.10
2023-06-21T04:02:30.148Z,94.30
2023-06-21T04:03:30.114Z,99.60
2023-06-21T04:04:30.099Z,96.90
2023-06-21T04:05:30.143Z,100.10
2023-06-21T04:06:30.097Z,100.00
2023-06-21T04:07:30.094Z,106.70
2023-06-21T04:08:30.111Z,93.70
2023-06-21T04:09:30.092Z,87.60
2023-06-21T04:10:30.318Z,93.10
2023-06-21T04:11:30.090Z,78.80
2023-06-21T04:12:30.086Z,81.60
2023-06-21T04:13:30.109Z,74.10
2023-06-21T04:14:30.084Z,76.20
2023-06-21T04:15:30.081Z,78.00
2023-06-21T04:16:30.080Z,73.60
2023-06-21T04:17:30.087Z,74.80
2023-06-21T04:18:30.082Z,70.40
2023-06-21T04:19:30.074Z,75.30
2023-06-21T04:20:30.301Z,77.50
2023-06-21T04:21:30.081Z,73.00
2023-06-21T04:22:30.070Z,78.10
2023-06-21T04:23:30.065Z,75.70
2023-06-21T04:24:30.158Z,68.90
2023-06-21T04:25:30.072Z,72.00
2023-06-21T04:26:30.064Z,71.30
2023-06-21T04:27:30.063Z,72.30
2023-06-21T04:28:30.067Z,69.10
2023-06-21T04:29:30.073Z,71.90
2023-06-21T04:30:30.274Z,72.30
2023-06-21T04:31:30.087Z,73.10
2023-06-21T04:32:30.060Z,70.00
2023-06-21T04:33:30.047Z,77.20
2023-06-21T04:34:30.059Z,71.90
2023-06-21T04:35:30.083Z,75.20
2023-06-21T04:36:30.043Z,69.90
2023-06-21T04:37:30.104Z,68.40
2023-06-21T04:38:30.054Z,65.90
2023-06-21T04:39:30.037Z,65.80
2023-06-21T04:40:30.050Z,64.20
2023-06-21T04:41:30.034Z,61.30
2023-06-21T04:42:30.031Z,63.50
2023-06-21T04:43:30.041Z,61.70
2023-06-21T04:44:30.044Z,61.10
2023-06-21T04:45:30.073Z,68.90
2023-06-21T04:46:30.043Z,59.30
2023-06-21T04:47:30.051Z,58.10
2023-06-21T04:48:30.024Z,54.80
2023-06-21T04:49:30.038Z,57.60
2023-06-21T04:50:30.050Z,60.20
2023-06-21T04:51:30.020Z,58.60
2023-06-21T04:52:30.030Z,60.00
2023-06-21T04:53:30.140Z,58.90
2023-06-21T04:54:30.014Z,56.10
2023-06-21T04:55:30.291Z,54.90
2023-06-21T04:56:30.016Z,57.00
2023-06-21T04:57:30.007Z,58.00
2023-06-21T04:58:30.006Z,57.80
2023-06-21T04:59:30.005Z,51.70
2023-06-21T05:00:30.262Z,45.70
2023-06-21T05:01:30.005Z,46.00
2023-06-21T05:02:30.068Z,46.70
2023-06-21T05:03:30.065Z,48.30
2023-06-21T05:04:29.998Z,48.90
2023-06-21T05:05:31.481Z,48.70
2023-06-21T05:06:30.009Z,49.00
2023-06-21T05:07:29.995Z,47.00
2023-06-21T05:08:29.997Z,45.20
2023-06-21T05:09:29.988Z,43.60
2023-06-21T05:10:32.100Z,41.60
2023-06-21T05:11:29.990Z,42.00
2023-06-21T05:12:29.995Z,42.00
2023-06-21T05:13:29.990Z,44.40
2023-06-21T05:14:30.001Z,45.90
2023-06-21T05:15:29.991Z,43.30
2023-06-21T05:16:30.013Z,41.90
2023-06-21T05:17:30.002Z,42.80
2023-06-21T05:18:29.991Z,43.40
2023-06-21T05:19:29.997Z,45.00
2023-06-21T05:20:30.295Z,44.80
2023-06-21T05:21:29.984Z,41.90
2023-06-21T05:22:29.986Z,38.50
2023-06-21T05:23:29.984Z,38.90
2023-06-21T05:24:29.989Z,38.00
2023-06-21T05:25:29.985Z,37.70
2023-06-21T05:26:29.983Z,35.70
2023-06-21T05:27:29.985Z,35.50
2023-06-21T05:28:29.985Z,38.40
2023-06-21T05:29:29.985Z,39.40
2023-06-21T05:30:30.332Z,41.70
2023-06-21T05:31:30.010Z,41.40
2023-06-21T05:32:30.039Z,40.70
2023-06-21T05:33:29.993Z,41.40
2023-06-21T05:34:30.003Z,37.90
2023-06-21T05:35:29.981Z,37.20
2023-06-21T05:36:29.983Z,37.80
2023-06-21T05:37:29.988Z,37.60
2023-06-21T05:38:29.982Z,39.50
2023-06-21T05:39:29.981Z,41.70
2023-06-21T05:40:30.411Z,40.60
2023-06-21T05:41:29.983Z,42.20
2023-06-21T05:42:30.000Z,43.80
2023-06-21T05:43:29.982Z,43.70
2023-06-21T05:44:29.982Z,40.10
2023-06-21T05:45:29.986Z,41.10
2023-06-21T05:46:30.010Z,42.70
2023-06-21T05:47:30.049Z,39.50
2023-06-21T05:48:29.981Z,39.70
2023-06-21T05:49:29.985Z,38.60
2023-06-21T05:50:30.073Z,36.90
2023-06-21T05:51:29.989Z,37.90
2023-06-21T05:52:29.985Z,36.40
2023-06-21T05:53:29.990Z,36.90
2023-06-21T05:54:29.996Z,36.60
2023-06-21T05:55:30.003Z,36.80
2023-06-21T05:56:29.986Z,36.80
2023-06-21T05:57:29.999Z,34.80
2023-06-21T05:58:29.989Z,34.50
2023-06-21T05:59:29.994Z,35.10
2023-06-21T06:00:30.139Z,35.00
2023-06-21T06:01:30.054Z,33.20
2023-06-21T06:02:30.064Z,32.90
2023-06-21T06:03:30.056Z,34.10
2023-06-21T06:04:29.996Z,34.60
2023-06-21T06:05:30.003Z,35.00
2023-06-21T06:06:30.019Z,35.50
2023-06-21T06:07:30.009Z,37.30
2023-06-21T06:08:30.008Z,37.80
2023-06-21T06:09:30.010Z,36.50
2023-06-21T06:10:30.275Z,35.50
2023-06-21T06:11:30.028Z,36.40
2023-06-21T06:12:30.023Z,36.30
2023-06-21T06:13:30.010Z,35.80
2023-06-21T06:14:30.038Z,35.50
2023-06-21T06:15:30.016Z,37.90
2023-06-21T06:16:30.063Z,37.30
2023-06-21T06:17:30.063Z,35.70
2023-06-21T06:18:30.038Z,36.10
2023-06-21T06:19:30.037Z,33.00
2023-06-21T06:20:30.300Z,35.80
2023-06-21T06:21:30.035Z,35.20
2023-06-21T06:22:30.026Z,33.80
2023-06-21T06:23:30.025Z,33.00
2023-06-21T06:24:30.032Z,31.90
2023-06-21T06:25:30.031Z,30.80
2023-06-21T06:26:30.034Z,31.50
2023-06-21T06:27:30.037Z,30.40
2023-06-21T06:28:30.033Z,28.00
2023-06-21T06:29:30.041Z,28.80
2023-06-21T06:30:30.277Z,29.00
2023-06-21T06:31:30.081Z,29.60
2023-06-21T06:32:30.088Z,29.60
2023-06-21T06:33:30.046Z,29.80
2023-06-21T06:34:30.060Z,29.10
2023-06-21T06:35:30.080Z,29.00
2023-06-21T06:36:30.057Z,30.10
2023-06-21T06:37:32.437Z,28.20
2023-06-21T06:38:30.074Z,29.00
2023-06-21T06:39:30.062Z,27.80
2023-06-21T06:40:30.279Z,29.00
2023-06-21T06:41:30.083Z,28.90
2023-06-21T06:42:30.068Z,28.90
2023-06-21T06:43:30.077Z,27.90
2023-06-21T06:44:30.069Z,27.70
2023-06-21T06:45:30.072Z,28.00
2023-06-21T06:46:30.075Z,28.00
2023-06-21T06:47:30.086Z,27.40
2023-06-21T06:48:30.163Z,28.80
2023-06-21T06:49:30.084Z,27.40
2023-06-21T06:50:30.303Z,26.90
2023-06-21T06:51:30.091Z,27.00
2023-06-21T06:52:30.122Z,27.00
2023-06-21T06:53:30.099Z,27.20
2023-06-21T06:54:30.106Z,26.30
2023-06-21T06:55:30.102Z,26.20
2023-06-21T06:56:30.113Z,26.30
2023-06-21T06:57:35.694Z,26.40
2023-06-21T06:58:30.109Z,26.20
2023-06-21T06:59:30.620Z,25.40
2023-06-21T07:00:30.460Z,24.00
2023-06-21T07:01:30.125Z,22.80
2023-06-21T07:02:30.179Z,23.40
2023-06-21T07:03:30.268Z,23.10
2023-06-21T07:04:30.373Z,22.70
2023-06-21T07:05:30.347Z,21.90
2023-06-21T07:06:30.140Z,23.00
2023-06-21T07:07:30.149Z,22.50
2023-06-21T07:08:30.150Z,23.10
2023-06-21T07:09:30.153Z,24.90
2023-06-21T07:10:30.386Z,22.60
2023-06-21T07:11:30.166Z,23.10
2023-06-21T07:12:30.173Z,21.90
2023-06-21T07:13:30.176Z,21.20
2023-06-21T07:14:30.175Z,20.50
2023-06-21T07:15:30.207Z,21.00
2023-06-21T07:16:30.181Z,21.10
2023-06-21T07:17:30.233Z,22.50
2023-06-21T07:18:30.197Z,23.20
2023-06-21T07:19:30.198Z,21.80
2023-06-21T07:20:30.506Z,21.40
2023-06-21T07:21:30.309Z,21.50
2023-06-21T07:22:30.212Z,19.90
2023-06-21T07:23:30.244Z,22.20
2023-06-21T07:24:30.221Z,22.50
2023-06-21T07:25:30.224Z,21.90
2023-06-21T07:26:30.231Z,21.20
2023-06-21T07:27:30.308Z,19.80
2023-06-21T07:28:30.241Z,20.70
2023-06-21T07:29:30.246Z,19.70
2023-06-21T07:30:30.737Z,19.60
2023-06-21T07:31:30.332Z,18.50
2023-06-21T07:32:31.926Z,17.40
2023-06-21T07:33:30.302Z,15.80
2023-06-21T07:34:30.281Z,17.70
2023-06-21T07:35:30.428Z,16.10
2023-06-21T07:36:30.297Z,15.50
2023-06-21T07:37:30.307Z,16.10
2023-06-21T07:38:30.294Z,15.90
2023-06-21T07:39:41.353Z,18.30
2023-06-21T07:40:30.516Z,17.00
2023-06-21T07:41:30.314Z,17.80
2023-06-21T07:42:30.321Z,17.40
2023-06-21T07:43:30.324Z,17.30
2023-06-21T07:44:30.330Z,15.00
2023-06-21T07:45:30.570Z,17.40
2023-06-21T07:46:30.421Z,17.60
2023-06-21T07:47:30.365Z,17.20
2023-06-21T07:48:30.356Z,17.70
2023-06-21T07:49:30.356Z,16.70
2023-06-21T07:50:30.370Z,17.00
2023-06-21T07:51:30.410Z,15.40
2023-06-21T07:52:30.374Z,14.30
2023-06-21T07:53:32.066Z,17.40
2023-06-21T07:54:30.384Z,14.30
2023-06-21T07:55:30.605Z,16.70
2023-06-21T07:56:30.397Z,14.40
2023-06-21T07:57:30.406Z,20.10
2023-06-21T07:58:30.420Z,17.90
2023-06-21T07:59:30.416Z,17.00
2023-06-21T08:00:30.420Z,16.30
2023-06-21T08:01:30.445Z,16.00
2023-06-21T08:02:30.503Z,15.10
2023-06-21T08:03:30.494Z,15.50
2023-06-21T08:04:30.500Z,14.50
2023-06-21T08:05:30.673Z,15.60
2023-06-21T08:06:30.458Z,14.20
2023-06-21T08:07:30.465Z,15.80
2023-06-21T08:08:30.472Z,13.20
2023-06-21T08:09:30.537Z,13.90
2023-06-21T08:10:30.485Z,12.80
2023-06-21T08:11:30.492Z,14.70
2023-06-21T08:12:30.497Z,14.80
2023-06-21T08:13:30.503Z,13.40
2023-06-21T08:14:30.517Z,12.80
2023-06-21T08:15:30.668Z,14.90
2023-06-21T08:16:30.540Z,15.70
2023-06-21T08:17:30.594Z,13.90
2023-06-21T08:18:30.537Z,15.80
2023-06-21T08:19:30.545Z,16.50
2023-06-21T08:20:30.550Z,14.90
2023-06-21T08:21:30.557Z,14.70
2023-06-21T08:22:30.565Z,14.70
2023-06-21T08:23:30.575Z,14.30
2023-06-21T08:24:30.576Z,14.10
2023-06-21T08:25:31.367Z,14.30
2023-06-21T08:26:30.593Z,14.50
2023-06-21T08:27:30.600Z,14.20
2023-06-21T08:28:30.604Z,14.00
2023-06-21T08:29:30.614Z,13.70
2023-06-21T08:30:30.628Z,13.60
2023-06-21T08:31:30.690Z,13.50
2023-06-21T08:32:30.671Z,13.60
2023-06-21T08:33:30.637Z,13.00
2023-06-21T08:34:30.655Z,13.00
2023-06-21T08:35:30.810Z,12.10
2023-06-21T08:36:30.675Z,12.70
2023-06-21T08:37:30.670Z,11.40
2023-06-21T08:38:30.679Z,14.00
2023-06-21T08:39:32.221Z,13.60
2023-06-21T08:40:30.692Z,13.30
2023-06-21T08:41:30.698Z,11.40
2023-06-21T08:42:30.749Z,13.90
2023-06-21T08:43:30.709Z,13.20
2023-06-21T08:44:30.724Z,12.70
2023-06-21T08:45:30.983Z,13.30
2023-06-21T08:46:30.774Z,13.20
2023-06-21T08:47:30.729Z,13.40
2023-06-21T08:48:30.745Z,11.80
2023-06-21T08:49:30.758Z,11.40
2023-06-21T08:50:30.749Z,11.50
2023-06-21T08:51:30.754Z,10.90
2023-06-21T08:52:30.756Z,10.50
2023-06-21T08:53:30.766Z,11.50
2023-06-21T08:54:30.770Z,11.40
2023-06-21T08:55:30.816Z,10.70
2023-06-21T08:56:30.776Z,10.30
2023-06-21T08:57:30.862Z,10.40
2023-06-21T08:58:30.784Z,10.30
2023-06-21T08:59:30.792Z,10.50
2023-06-21T09:00:30.967Z,10.40
2023-06-21T09:01:30.861Z,10.60
2023-06-21T09:02:30.956Z,10.60
2023-06-21T09:03:30.883Z,9.80
2023-06-21T09:04:31.068Z,9.60
2023-06-21T09:05:30.813Z,9.90
2023-06-21T09:06:30.811Z,10.30
2023-06-21T09:07:30.875Z,10.60
2023-06-21T09:08:30.893Z,10.10
2023-06-21T09:09:30.828Z,9.80
2023-06-21T09:10:31.024Z,9.60
2023-06-21T09:11:30.836Z,9.90
2023-06-21T09:12:30.838Z,9.90
2023-06-21T09:13:30.940Z,9.50
2023-06-21T09:14:30.854Z,9.80
2023-06-21T09:15:31.037Z,9.80
2023-06-21T09:16:30.852Z,9.90
2023-06-21T09:17:30.926Z,9.70
2023-06-21T09:18:30.865Z,10.10
2023-06-21T09:19:30.865Z,9.40
2023-06-21T09:20:31.176Z,9.20
2023-06-21T09:21:30.873Z,9.50
2023-06-21T09:22:30.953Z,9.60
2023-06-21T09:23:30.878Z,9.40
2023-06-21T09:24:30.880Z,9.80
2023-06-21T09:25:30.890Z,9.30
2023-06-21T09:26:30.889Z,9.50
2023-06-21T09:27:30.933Z,9.40
2023-06-21T09:28:30.900Z,9.70
2023-06-21T09:29:30.934Z,9.70
2023-06-21T09:30:38.044Z,10.30
2023-06-21T09:31:30.904Z,10.20
2023-06-21T09:32:30.999Z,10.20
2023-06-21T09:33:31.005Z,9.40
2023-06-21T09:34:30.925Z,10.10
2023-06-21T09:35:30.915Z,10.10
2023-06-21T09:36:30.957Z,9.70
2023-06-21T09:37:30.922Z,9.70
2023-06-21T09:38:30.926Z,9.70
2023-06-21T09:39:30.930Z,9.60
2023-06-21T09:40:30.933Z,9.50
2023-06-21T09:41:30.938Z,9.10
2023-06-21T09:42:30.937Z,9.10
2023-06-21T09:43:30.942Z,8.90
2023-06-21T09:44:30.944Z,8.70
2023-06-21T09:45:30.949Z,9.20
2023-06-21T09:46:30.957Z,8.80
2023-06-21T09:47:31.050Z,8.80
2023-06-21T09:48:31.039Z,8.70
2023-06-21T09:49:30.963Z,8.40
2023-06-21T09:50:30.998Z,9.10
2023-06-21T09:51:31.004Z,8.40
2023-06-21T09:52:30.972Z,9.60
2023-06-21T09:53:30.976Z,8.20
2023-06-21T09:54:30.979Z,8.30
2023-06-21T09:55:30.981Z,8.50
2023-06-21T09:56:30.997Z,8.30
2023-06-21T09:57:31.004Z,8.30
2023-06-21T09:58:31.010Z,8.50
2023-06-21T09:59:30.994Z,7.80
2023-06-21T10:00:31.180Z,8.00
2023-06-21T10:01:31.224Z,7.60
2023-06-21T10:02:31.054Z,7.80
2023-06-21T10:03:31.067Z,7.90
2023-06-21T10:04:31.008Z,7.60
2023-06-21T10:05:31.016Z,7.80
2023-06-21T10:06:31.023Z,7.80
2023-06-21T10:07:31.029Z,7.50
2023-06-21T10:08:31.032Z,7.40
2023-06-21T10:09:31.032Z,8.10
2023-06-21T10:10:31.237Z,7.00
2023-06-21T10:11:31.031Z,6.80
2023-06-21T10:12:31.049Z,6.80
2023-06-21T10:13:31.051Z,6.70
2023-06-21T10:14:31.045Z,6.80
2023-06-21T10:15:31.045Z,6.90
2023-06-21T10:16:31.044Z,7.10
2023-06-21T10:17:31.086Z,7.50
2023-06-21T10:18:31.070Z,7.10
2023-06-21T10:19:31.056Z,7.20
2023-06-21T10:20:31.386Z,7.90
2023-06-21T10:21:31.067Z,8.30
2023-06-21T10:22:31.065Z,7.40
2023-06-21T10:23:31.072Z,8.00
2023-06-21T10:24:31.071Z,8.20
2023-06-21T10:25:31.076Z,7.70
2023-06-21T10:26:31.077Z,7.90
2023-06-21T10:27:31.081Z,7.70
2023-06-21T10:28:31.081Z,7.70
2023-06-21T10:29:31.085Z,8.10
2023-06-21T10:30:31.333Z,7.70
2023-06-21T10:31:31.146Z,7.70
2023-06-21T10:32:31.124Z,7.40
2023-06-21T10:33:31.425Z,8.40
2023-06-21T10:34:31.101Z,7.20
2023-06-21T10:35:31.125Z,7.50
2023-06-21T10:36:31.108Z,7.20
2023-06-21T10:37:31.125Z,7.40
2023-06-21T10:38:31.125Z,7.30
2023-06-21T10:39:31.116Z,7.10
2023-06-21T10:40:31.424Z,7.00
2023-06-21T10:41:31.123Z,7.30
2023-06-21T10:42:31.128Z,8.30
2023-06-21T10:43:31.129Z,7.10
2023-06-21T10:44:31.134Z,7.00
2023-06-21T10:45:31.137Z,7.70
2023-06-21T10:46:31.276Z,7.90
2023-06-21T10:47:31.189Z,7.20
2023-06-21T10:48:31.144Z,7.10
2023-06-21T10:49:31.149Z,6.90
2023-06-21T10:50:31.600Z,7.80
2023-06-21T10:51:31.159Z,7.20
2023-06-21T10:52:31.166Z,7.30
2023-06-21T10:53:31.168Z,7.50
2023-06-21T10:54:31.164Z,7.90
2023-06-21T10:55:31.173Z,7.50
2023-06-21T10:56:31.173Z,7.10
2023-06-21T10:57:31.176Z,7.00
2023-06-21T10:58:31.187Z,7.70
2023-06-21T10:59:31.179Z,7.30
2023-06-21T11:00:31.481Z,7.60
2023-06-21T11:01:31.255Z,7.00
2023-06-21T11:02:31.236Z,7.00
2023-06-21T11:03:31.214Z,7.70
2023-06-21T11:04:36.305Z,6.50
2023-06-21T11:05:31.201Z,7.20
2023-06-21T11:06:36.771Z,6.60
2023-06-21T11:07:31.210Z,6.60
2023-06-21T11:08:31.222Z,6.80
2023-06-21T11:09:31.229Z,9.00
2023-06-21T11:10:31.452Z,7.50
2023-06-21T11:11:31.214Z,6.60
2023-06-21T11:12:31.218Z,6.50
2023-06-21T11:13:31.226Z,6.60
2023-06-21T11:14:31.228Z,6.50
2023-06-21T11:15:31.229Z,6.40
2023-06-21T11:16:31.233Z,6.70
2023-06-21T11:17:31.291Z,6.60
2023-06-21T11:18:31.239Z,6.20
2023-06-21T11:19:31.241Z,6.20
2023-06-21T11:20:31.595Z,6.00
2023-06-21T11:21:31.249Z,6.30
2023-06-21T11:22:31.250Z,7.10
2023-06-21T11:23:31.255Z,6.70
2023-06-21T11:24:31.257Z,6.50
2023-06-21T11:25:31.268Z,7.60
2023-06-21T11:26:31.265Z,6.50
2023-06-21T11:27:31.265Z,6.60
2023-06-21T11:28:31.272Z,6.20
2023-06-21T11:29:31.277Z,6.00
2023-06-21T11:30:31.278Z,6.50
2023-06-21T11:31:31.299Z,6.00
2023-06-21T11:32:31.425Z,6.20
2023-06-21T11:33:31.314Z,6.50
2023-06-21T11:34:31.302Z,6.40
2023-06-21T11:35:31.292Z,6.10
2023-06-21T11:36:31.302Z,6.80
2023-06-21T11:37:31.300Z,5.60
2023-06-21T11:38:31.311Z,5.70
2023-06-21T11:39:31.308Z,5.50
2023-06-21T11:40:31.534Z,5.50
2023-06-21T11:41:31.315Z,5.60
2023-06-21T11:42:31.316Z,5.50
2023-06-21T11:43:31.319Z,5.60
2023-06-21T11:44:31.326Z,5.80
2023-06-21T11:45:31.334Z,5.50
2023-06-21T11:46:31.331Z,5.30
2023-06-21T11:47:31.363Z,5.70
2023-06-21T11:48:31.362Z,5.40
2023-06-21T11:49:31.336Z,6.10
2023-06-21T11:50:31.601Z,5.20
2023-06-21T11:51:32.834Z,5.70
2023-06-21T11:52:31.348Z,5.00
2023-06-21T11:53:31.355Z,5.30
2023-06-21T11:54:31.353Z,6.30
2023-06-21T11:55:31.357Z,5.40
2023-06-21T11:56:31.376Z,5.50
2023-06-21T11:57:31.363Z,6.40
2023-06-21T11:58:31.368Z,5.50
2023-06-21T11:59:31.365Z,5.50
2023-06-21T12:00:31.504Z,5.50
2023-06-21T12:01:31.372Z,6.40
2023-06-21T12:02:31.438Z,6.70
2023-06-21T12:03:31.569Z,5.40
2023-06-21T12:04:31.460Z,5.50
2023-06-21T12:05:31.387Z,5.30
2023-06-21T12:06:31.391Z,5.30
2023-06-21T12:07:31.393Z,5.40
2023-06-21T12:08:31.403Z,5.40
2023-06-21T12:09:31.398Z,5.50
2023-06-21T12:10:31.679Z,7.70
2023-06-21T12:11:31.404Z,5.90
2023-06-21T12:12:31.406Z,5.70
2023-06-21T12:13:31.411Z,5.40
2023-06-21T12:14:31.454Z,6.00
2023-06-21T12:15:31.424Z,5.60
2023-06-21T12:16:31.465Z,5.30
2023-06-21T12:17:31.439Z,5.40
2023-06-21T12:18:31.451Z,5.40
2023-06-21T12:19:31.533Z,5.30
2023-06-21T12:20:31.469Z,6.00
2023-06-21T12:21:31.437Z,5.30
2023-06-21T12:22:31.441Z,5.20
2023-06-21T12:23:31.452Z,5.50
2023-06-21T12:24:31.454Z,5.40
2023-06-21T12:25:31.461Z,5.20
2023-06-21T12:26:31.461Z,5.30
2023-06-21T12:27:31.461Z,5.80
2023-06-21T12:28:31.490Z,5.20
2023-06-21T12:29:31.477Z,5.30
2023-06-21T12:30:31.728Z,5.10
2023-06-21T12:31:31.521Z,5.40
2023-06-21T12:32:31.505Z,5.30
2023-06-21T12:33:31.494Z,5.10
2023-06-21T12:34:31.493Z,5.40
2023-06-21T12:35:31.492Z,5.30
2023-06-21T12:36:31.494Z,4.80
2023-06-21T12:37:31.502Z,4.60
2023-06-21T12:38:31.505Z,5.10
2023-06-21T12:39:31.512Z,4.70
2023-06-21T12:40:31.515Z,4.80
2023-06-21T12:41:31.537Z,6.40
2023-06-21T12:42:31.523Z,5.40
2023-06-21T12:43:31.524Z,4.60
2023-06-21T12:44:31.528Z,5.40
2023-06-21T12:45:31.535Z,4.80
2023-06-21T12:46:31.534Z,5.40
2023-06-21T12:47:31.621Z,4.80
2023-06-21T12:48:31.539Z,4.90
2023-06-21T12:49:31.557Z,4.40
2023-06-21T12:50:31.977Z,4.90
2023-06-21T12:51:31.624Z,4.60
2023-06-21T12:52:31.609Z,4.90
2023-06-21T12:53:31.560Z,4.70
2023-06-21T12:54:31.565Z,5.00
2023-06-21T12:55:31.565Z,4.70
2023-06-21T12:56:31.583Z,4.60
2023-06-21T12:57:31.582Z,4.20
2023-06-21T12:58:31.588Z,4.10